Time;durP1;ratioP1;P1;durP2;ratioP2;P2;SDS_P1;SDS_P2;PMS_P1;PMS_P2;Temp;Humidity;BMP_temperature;BMP_pressure;BME280_temperature;BME280_humidity;BME280_pressure;Samples;Min_cycle;Max_cycle;Signal;HPM_P1;HPM_P2
2023/12/31 00:01:58;;;;;;;0.20;0.20;;;5.70;99.90;;;;;;5091655;28;20039;-87
2023/12/31 00:04:24;;;;;;;0.80;0.80;;;5.70;99.90;;;;;;5071102;28;20409;-86
2023/12/31 00:06:51;;;;;;;1.50;0.47;;;5.70;99.90;;;;;;5067885;28;20033;-86
2023/12/31 00:09:17;;;;;;;0.30;0.30;;;5.60;99.90;;;;;;5070091;28;20040;-86
2023/12/31 00:11:43;;;;;;;0.30;0.30;;;5.60;99.90;;;;;;5071078;28;20046;-86
2023/12/31 00:14:09;;;;;;;0.40;0.40;;;5.50;1.00;;;;;;5070337;28;20103;-86
2023/12/31 00:16:35;;;;;;;0.40;0.40;;;5.60;1.00;;;;;;5081530;28;20037;-86
2023/12/31 00:19:02;;;;;;;0.57;0.47;;;5.60;1.00;;;;;;5065168;28;20032;-86
2023/12/31 00:21:28;;;;;;;0.17;0.17;;;5.70;99.90;;;;;;5067683;28;20052;-83
2023/12/31 00:23:54;;;;;;;0.43;0.43;;;5.70;99.90;;;;;;5071601;28;20031;-85
2023/12/31 00:26:20;;;;;;;0.85;0.85;;;5.70;99.90;;;;;;5054288;28;20056;-87
2023/12/31 00:28:47;;;;;;;0.30;0.30;;;5.70;99.90;;;;;;5067042;28;20041;-87
2023/12/31 00:31:16;;;;;;;0.30;0.30;;;5.70;99.90;;;;;;5068289;28;20377;-87
2023/12/31 00:33:42;;;;;;;0.38;0.38;;;5.70;99.90;;;;;;5080096;28;20037;-86
2023/12/31 00:36:08;;;;;;;0.88;0.65;;;5.60;99.90;;;;;;5082763;28;20028;-86
2023/12/31 00:38:35;;;;;;;0.20;0.20;;;5.60;99.90;;;;;;5066151;28;20043;-87
2023/12/31 00:41:02;;;;;;;0.15;0.15;;;5.60;99.90;;;;;;5063611;28;20063;-86
2023/12/31 00:43:28;;;;;;;0.60;0.57;;;5.60;99.90;;;;;;5069366;28;20047;-84
2023/12/31 00:45:54;;;;;;;0.30;0.30;;;5.60;99.90;;;;;;5066920;28;20036;-86
2023/12/31 00:48:20;;;;;;;0.30;0.30;;;5.60;99.90;;;;;;5067734;28;20462;-87
2023/12/31 00:50:47;;;;;;;0.40;0.40;;;5.50;99.90;;;;;;5067614;28;20504;-86
2023/12/31 00:53:13;;;;;;;0.43;0.40;;;5.50;99.90;;;;;;5058081;28;20041;-86
2023/12/31 00:55:39;;;;;;;0.63;0.63;;;5.60;99.90;;;;;;5071169;28;20024;-87
2023/12/31 00:58:07;;;;;;;1.38;0.30;;;5.60;99.90;;;;;;5066651;28;20861;-87
2023/12/31 01:00:33;;;;;;;0.57;0.55;;;5.60;99.90;;;;;;5067836;28;20051;-88
2023/12/31 01:02:59;;;;;;;1.67;1.00;;;5.60;99.90;;;;;;5069790;28;20044;-86
2023/12/31 01:05:25;;;;;;;0.30;0.30;;;5.50;99.90;;;;;;5070435;28;20032;-87
2023/12/31 01:07:51;;;;;;;0.47;0.43;;;5.50;99.90;;;;;;5073661;28;20033;-87
2023/12/31 01:10:17;;;;;;;0.20;0.20;;;5.50;99.90;;;;;;5074976;28;20040;-86
2023/12/31 01:12:44;;;;;;;0.20;0.20;;;5.50;99.90;;;;;;5068915;28;20028;-87
2023/12/31 01:15:10;;;;;;;0.10;0.10;;;5.60;99.90;;;;;;5049241;28;20040;-87
2023/12/31 01:17:36;;;;;;;0.10;0.10;;;5.70;99.90;;;;;;5085939;28;20041;-87
2023/12/31 01:20:04;;;;;;;0.65;0.65;;;5.90;99.90;;;;;;5070955;28;20490;-87
2023/12/31 01:22:30;;;;;;;0.20;0.20;;;5.90;99.90;;;;;;5069521;28;20040;-85
2023/12/31 01:24:56;;;;;;;0.80;0.70;;;5.90;99.90;;;;;;5071487;28;20032;-87
2023/12/31 01:27:22;;;;;;;3.60;1.48;;;6.00;99.90;;;;;;5073469;28;20035;-87
2023/12/31 01:29:49;;;;;;;0.10;0.10;;;5.90;99.90;;;;;;5071693;28;20047;-87
2023/12/31 01:32:15;;;;;;;1.05;0.60;;;5.90;99.90;;;;;;5056405;28;20469;-89
2023/12/31 01:34:41;;;;;;;0.30;0.30;;;5.80;99.90;;;;;;5069945;28;20020;-89
2023/12/31 01:37:07;;;;;;;0.40;0.40;;;5.70;99.90;;;;;;5072843;28;20812;-88
2023/12/31 01:39:33;;;;;;;0.57;0.55;;;5.60;99.90;;;;;;5055805;28;20049;-86
2023/12/31 01:42:00;;;;;;;0.25;0.25;;;5.50;99.90;;;;;;5071859;28;20029;-87
2023/12/31 01:44:27;;;;;;;0.30;0.28;;;5.60;99.90;;;;;;5070741;28;20138;-87
2023/12/31 01:46:55;;;;;;;1.17;0.65;;;5.60;99.90;;;;;;5070547;28;20480;-87
2023/12/31 01:49:22;;;;;;;0.57;0.57;;;5.60;99.90;;;;;;5072976;28;20048;-88
2023/12/31 01:51:49;;;;;;;0.43;0.40;;;5.60;99.90;;;;;;5072184;28;20033;-87
2023/12/31 01:54:17;;;;;;;0.40;0.40;;;5.50;99.90;;;;;;5065606;28;20037;-87
2023/12/31 01:56:44;;;;;;;2.15;1.10;;;5.50;99.90;;;;;;5073037;28;20048;-86
2023/12/31 01:59:10;;;;;;;0.57;0.57;;;5.50;99.90;;;;;;5068876;28;20045;-86
2023/12/31 02:01:37;;;;;;;0.43;0.43;;;5.40;99.90;;;;;;5071385;28;20044;-87
2023/12/31 02:04:06;;;;;;;0.57;0.55;;;5.40;99.90;;;;;;5071319;28;20385;-86
2023/12/31 02:06:32;;;;;;;0.50;0.50;;;5.30;99.90;;;;;;5069725;28;20362;-86
2023/12/31 02:08:58;;;;;;;0.35;0.35;;;5.30;99.90;;;;;;5072142;28;20040;-87
2023/12/31 02:11:24;;;;;;;1.50;1.40;;;5.20;99.90;;;;;;5084287;28;20041;-87
2023/12/31 02:13:50;;;;;;;0.10;0.10;;;5.30;99.90;;;;;;5080717;28;20024;-88
2023/12/31 02:16:17;;;;;;;1.17;0.75;;;5.30;99.90;;;;;;5070646;28;20044;-87
2023/12/31 02:18:45;;;;;;;0.52;0.52;;;5.30;99.90;;;;;;5052577;28;20470;-87
2023/12/31 02:21:13;;;;;;;0.50;0.50;;;5.30;99.90;;;;;;5071569;28;20048;-86
2023/12/31 02:23:41;;;;;;;0.20;0.20;;;5.40;99.90;;;;;;5072440;28;20393;-85
2023/12/31 02:26:09;;;;;;;0.47;0.40;;;5.50;99.90;;;;;;5071111;28;20028;-88
2023/12/31 02:28:36;;;;;;;0.82;0.63;;;5.50;99.90;;;;;;5072976;28;20450;-87
2023/12/31 02:31:04;;;;;;;1.27;0.80;;;5.50;99.90;;;;;;5072977;28;20424;-87
2023/12/31 02:33:30;;;;;;;0.10;0.10;;;5.60;99.90;;;;;;5070754;28;20390;-86
2023/12/31 02:35:57;;;;;;;0.28;0.28;;;5.60;99.90;;;;;;5072192;28;20029;-86
2023/12/31 02:38:23;;;;;;;1.02;0.90;;;5.60;99.90;;;;;;5085182;28;20033;-87
2023/12/31 02:40:49;;;;;;;0.17;0.17;;;5.60;99.90;;;;;;5088056;28;20024;-86
2023/12/31 02:43:16;;;;;;;0.10;0.10;;;5.70;99.90;;;;;;5072164;28;20032;-86
2023/12/31 02:45:42;;;;;;;0.43;0.43;;;5.70;99.90;;;;;;5050833;28;20040;-88
2023/12/31 02:48:08;;;;;;;0.65;0.65;;;5.80;99.90;;;;;;5067321;28;20615;-88
2023/12/31 02:50:34;;;;;;;1.55;1.05;;;5.80;99.90;;;;;;5069847;28;20047;-86
2023/12/31 02:53:00;;;;;;;0.20;0.20;;;5.80;99.90;;;;;;5070851;28;20135;-86
2023/12/31 02:55:27;;;;;;;2.22;1.17;;;5.80;99.90;;;;;;5072456;28;20024;-86
2023/12/31 02:57:53;;;;;;;0.20;0.20;;;5.70;99.90;;;;;;5068550;28;20044;-86
2023/12/31 03:00:19;;;;;;;0.47;0.47;;;5.60;99.90;;;;;;5069082;28;20055;-86
2023/12/31 03:02:45;;;;;;;0.10;0.10;;;5.60;99.90;;;;;;5071046;28;20052;-88
2023/12/31 03:05:12;;;;;;;0.82;0.82;;;5.60;99.90;;;;;;5069732;28;20048;-87
2023/12/31 03:07:39;;;;;;;0.10;0.10;;;5.60;99.90;;;;;;5070194;28;20047;-86
2023/12/31 03:10:06;;;;;;;0.10;0.10;;;5.50;99.90;;;;;;5070558;28;20484;-87
2023/12/31 03:12:32;;;;;;;1.55;0.98;;;5.50;99.90;;;;;;5072542;28;20111;-86
2023/12/31 03:14:58;;;;;;;0.75;0.65;;;5.60;99.90;;;;;;5071217;28;20144;-87
2023/12/31 03:17:25;;;;;;;0.20;0.20;;;5.60;99.90;;;;;;5053539;28;20048;-86
2023/12/31 03:19:51;;;;;;;0.40;0.40;;;5.60;99.90;;;;;;5062055;28;20048;-88
2023/12/31 03:22:17;;;;;;;0.30;0.30;;;5.60;99.90;;;;;;5070149;28;20057;-87
2023/12/31 03:24:43;;;;;;;0.65;0.65;;;5.50;99.90;;;;;;5064933;28;20051;-87
2023/12/31 03:27:11;;;;;;;0.10;0.10;;;5.60;99.90;;;;;;5072143;28;20024;-87
2023/12/31 03:29:38;;;;;;;0.63;0.63;;;5.60;99.90;;;;;;5070811;28;20047;-87
2023/12/31 03:32:04;;;;;;;0.10;0.10;;;5.60;99.90;;;;;;5045158;28;20059;-86
2023/12/31 03:34:30;;;;;;;0.50;0.50;;;5.50;99.90;;;;;;5070490;28;20044;-85
2023/12/31 03:36:57;;;;;;;0.40;0.40;;;5.50;99.90;;;;;;5068295;28;20036;-88
2023/12/31 03:39:23;;;;;;;0.65;0.65;;;5.50;99.90;;;;;;5070180;28;20343;-86
2023/12/31 03:41:49;;;;;;;0.30;0.30;;;5.50;99.90;;;;;;5068178;28;20603;-86
2023/12/31 03:44:15;;;;;;;0.63;0.52;;;5.40;99.90;;;;;;5060851;28;20771;-86
2023/12/31 03:46:42;;;;;;;0.40;0.40;;;5.40;99.90;;;;;;5071555;28;20564;-86
2023/12/31 03:49:08;;;;;;;0.50;0.50;;;5.40;99.90;;;;;;5071645;28;20044;-87
2023/12/31 03:51:34;;;;;;;0.52;0.52;;;5.40;99.90;;;;;;5069210;28;20477;-87
2023/12/31 03:54:00;;;;;;;0.30;0.30;;;5.40;99.90;;;;;;5064127;28;20059;-87
2023/12/31 03:56:27;;;;;;;0.73;0.73;;;5.30;99.90;;;;;;5067361;28;20039;-87
2023/12/31 03:58:53;;;;;;;0.10;0.10;;;5.30;99.90;;;;;;5069642;28;20032;-87
2023/12/31 04:01:19;;;;;;;0.43;0.30;;;5.30;99.90;;;;;;5070651;28;20044;-85
2023/12/31 04:03:45;;;;;;;1.52;1.42;;;5.40;99.90;;;;;;5073988;28;20033;-87
2023/12/31 04:06:12;;;;;;;2.08;1.08;;;5.30;99.90;;;;;;5052810;28;20048;-87
2023/12/31 04:08:38;;;;;;;0.43;0.43;;;5.40;99.90;;;;;;5052391;28;20051;-88
2023/12/31 04:11:05;;;;;;;0.20;0.20;;;5.40;99.90;;;;;;5069579;28;20060;-88
2023/12/31 04:13:31;;;;;;;0.80;0.80;;;5.40;99.90;;;;;;5063345;28;20025;-84
2023/12/31 04:15:57;;;;;;;0.20;0.20;;;5.50;99.90;;;;;;5067786;28;20028;-88
2023/12/31 04:18:24;;;;;;;0.43;0.43;;;5.50;99.90;;;;;;5069093;28;20044;-88
2023/12/31 04:20:51;;;;;;;0.85;0.85;;;5.50;99.90;;;;;;5069078;28;20029;-88
2023/12/31 04:23:17;;;;;;;0.10;0.10;;;5.50;99.90;;;;;;5067746;28;20044;-88
2023/12/31 04:25:43;;;;;;;0.35;0.35;;;5.60;99.90;;;;;;5064995;28;20047;-88
2023/12/31 04:28:09;;;;;;;0.25;0.25;;;5.50;99.90;;;;;;5060399;28;20454;-86
2023/12/31 04:30:37;;;;;;;1.75;0.57;;;5.60;99.90;;;;;;5070414;28;20398;-89
2023/12/31 04:33:03;;;;;;;1.60;0.70;;;5.60;99.90;;;;;;5069263;28;20036;-87
2023/12/31 04:35:32;;;;;;;0.30;0.30;;;5.70;99.90;;;;;;5066656;28;20054;-84
2023/12/31 04:37:58;;;;;;;0.25;0.25;;;5.70;99.90;;;;;;5069143;28;20051;-88
2023/12/31 04:40:24;;;;;;;0.57;0.57;;;5.70;99.90;;;;;;5069584;28;20037;-87
2023/12/31 04:42:51;;;;;;;0.10;0.10;;;5.80;99.90;;;;;;5070299;28;20021;-88
2023/12/31 04:45:17;;;;;;;0.17;0.17;;;5.80;99.90;;;;;;5068064;28;20041;-88
2023/12/31 04:47:43;;;;;;;1.17;0.75;;;5.80;99.90;;;;;;5063926;28;20029;-88
2023/12/31 04:50:10;;;;;;;1.15;1.08;;;5.70;99.90;;;;;;5067416;28;20045;-88
2023/12/31 04:52:36;;;;;;;0.43;0.30;;;5.70;99.90;;;;;;5070292;28;20040;-88
2023/12/31 04:55:03;;;;;;;0.95;0.60;;;5.70;99.90;;;;;;5067950;28;20029;-88
2023/12/31 04:57:31;;;;;;;0.60;0.57;;;5.70;99.90;;;;;;5068441;28;20033;-86
2023/12/31 04:59:57;;;;;;;1.23;0.65;;;5.60;99.90;;;;;;5066116;28;20471;-86
2023/12/31 05:02:25;;;;;;;1.25;1.15;;;5.70;99.90;;;;;;5071553;28;20040;-88
2023/12/31 05:04:51;;;;;;;0.60;0.52;;;5.70;99.90;;;;;;5063763;28;20040;-88
2023/12/31 05:07:17;;;;;;;0.50;0.50;;;5.60;99.90;;;;;;5071884;28;20370;-88
2023/12/31 05:09:43;;;;;;;0.30;0.25;;;5.70;99.90;;;;;;5074051;28;20008;-86
2023/12/31 05:12:09;;;;;;;1.20;0.82;;;5.70;99.90;;;;;;5091785;28;20039;-85
2023/12/31 05:14:35;;;;;;;0.28;0.28;;;5.70;99.90;;;;;;5078732;28;20037;-88
2023/12/31 05:17:02;;;;;;;0.13;0.13;;;5.70;99.90;;;;;;5065981;28;20398;-88
2023/12/31 05:19:28;;;;;;;0.20;0.20;;;5.70;99.90;;;;;;5066168;28;20044;-87
2023/12/31 05:21:55;;;;;;;0.40;0.40;;;5.80;99.90;;;;;;5069753;28;20123;-89
2023/12/31 05:24:21;;;;;;;0.98;0.98;;;5.90;99.90;;;;;;5068308;28;20063;-88
2023/12/31 05:26:47;;;;;;;0.30;0.30;;;5.90;99.90;;;;;;5068431;28;20377;-85
2023/12/31 05:29:13;;;;;;;1.08;0.77;;;6.00;99.90;;;;;;5077447;28;20037;-86
2023/12/31 05:31:40;;;;;;;0.10;0.10;;;6.10;99.90;;;;;;5073121;28;20036;-87
2023/12/31 05:34:06;;;;;;;0.15;0.15;;;6.20;99.90;;;;;;5067704;28;20799;-87
2023/12/31 05:36:32;;;;;;;0.20;0.20;;;6.20;99.90;;;;;;5069517;28;20048;-85
2023/12/31 05:38:58;;;;;;;0.80;0.80;;;6.20;99.90;;;;;;5070008;28;20032;-88
2023/12/31 05:41:24;;;;;;;0.45;0.43;;;6.10;99.90;;;;;;5062611;28;20044;-88
2023/12/31 05:43:51;;;;;;;0.93;0.77;;;6.20;99.90;;;;;;5068424;28;20032;-87
2023/12/31 05:46:17;;;;;;;0.50;0.50;;;6.10;99.90;;;;;;5074932;28;20024;-87
2023/12/31 05:48:43;;;;;;;1.33;1.13;;;6.00;99.90;;;;;;5074037;28;20035;-87
2023/12/31 05:51:10;;;;;;;0.10;0.10;;;6.00;99.90;;;;;;5063904;28;20379;-87
2023/12/31 05:53:36;;;;;;;2.80;1.48;;;5.90;99.90;;;;;;5067342;28;20040;-88
2023/12/31 05:56:02;;;;;;;1.08;0.95;;;5.90;99.90;;;;;;5072249;28;20036;-87
2023/12/31 05:58:28;;;;;;;1.25;0.90;;;5.90;99.90;;;;;;5071225;28;20032;-87
2023/12/31 06:00:54;;;;;;;0.95;0.85;;;5.90;99.90;;;;;;5065731;28;20067;-89
2023/12/31 06:03:20;;;;;;;2.03;1.25;;;5.90;99.90;;;;;;5065794;28;20389;-88
2023/12/31 06:05:47;;;;;;;0.28;0.28;;;5.90;99.90;;;;;;5068918;28;20032;-88
2023/12/31 06:08:13;;;;;;;0.65;0.60;;;6.00;99.90;;;;;;5071660;28;20029;-87
2023/12/31 06:10:39;;;;;;;0.40;0.40;;;6.20;99.90;;;;;;5069548;28;20036;-88
2023/12/31 06:13:05;;;;;;;0.22;0.22;;;6.30;99.90;;;;;;5063718;28;20385;-89
2023/12/31 06:15:31;;;;;;;0.40;0.35;;;6.30;99.90;;;;;;5060752;28;20051;-85
2023/12/31 06:17:58;;;;;;;0.30;0.30;;;6.30;96.90;;;;;;5073525;28;20036;-88
2023/12/31 06:20:24;;;;;;;0.40;0.40;;;6.30;92.00;;;;;;5069430;28;20386;-89
2023/12/31 06:22:50;;;;;;;0.20;0.20;;;6.40;87.30;;;;;;5071064;28;20638;-89
2023/12/31 06:25:16;;;;;;;0.52;0.52;;;6.50;69.30;;;;;;5071487;28;20385;-85
2023/12/31 06:27:42;;;;;;;0.30;0.30;;;6.50;42.00;;;;;;5072460;28;20051;-88
2023/12/31 06:30:09;;;;;;;0.40;0.40;;;6.60;23.20;;;;;;5054989;28;20044;-88
2023/12/31 06:32:35;;;;;;;0.10;0.10;;;6.60;13.80;;;;;;5069821;28;20040;-88
2023/12/31 06:35:03;;;;;;;0.35;0.35;;;6.70;5.50;;;;;;5067133;28;20040;-87
2023/12/31 06:37:29;;;;;;;0.30;0.30;;;6.60;10.70;;;;;;5073107;28;20508;-85
2023/12/31 06:39:55;;;;;;;1.83;0.50;;;6.60;10.20;;;;;;5071777;28;20035;-86
2023/12/31 06:42:21;;;;;;;0.65;0.15;;;6.70;1.00;;;;;;5070802;28;20040;-85
2023/12/31 06:44:48;;;;;;;0.40;0.40;;;6.80;1.00;;;;;;5070139;28;20025;-88
2023/12/31 06:47:14;;;;;;;0.17;0.17;;;6.90;1.00;;;;;;5068902;28;20035;-87
2023/12/31 06:49:40;;;;;;;1.65;0.90;;;6.90;1.00;;;;;;5070248;28;20036;-87
2023/12/31 06:52:06;;;;;;;0.15;0.15;;;6.90;1.00;;;;;;5070555;28;20033;-88
2023/12/31 06:54:32;;;;;;;0.95;0.95;;;6.90;1.00;;;;;;5070745;28;20056;-82
2023/12/31 06:56:58;;;;;;;0.20;0.20;;;6.80;1.00;;;;;;5067599;28;20037;-87
2023/12/31 06:59:24;;;;;;;8.73;0.75;;;6.80;1.00;;;;;;5071278;28;20028;-87
2023/12/31 07:01:51;;;;;;;0.30;0.30;;;6.80;1.00;;;;;;5070088;28;20032;-86
2023/12/31 07:04:17;;;;;;;0.47;0.47;;;6.70;1.00;;;;;;5069007;28;20039;-86
2023/12/31 07:06:43;;;;;;;1.58;0.95;;;6.70;1.00;;;;;;5071350;28;20944;-86
2023/12/31 07:09:09;;;;;;;0.10;0.10;;;6.80;1.00;;;;;;5072525;28;20044;-86
2023/12/31 07:11:35;;;;;;;0.28;0.28;;;6.70;1.00;;;;;;5070558;28;20055;-86
2023/12/31 07:14:02;;;;;;;0.35;0.35;;;6.70;1.00;;;;;;5066910;28;20024;-87
2023/12/31 07:16:28;;;;;;;0.68;0.68;;;6.80;1.00;;;;;;5055161;28;20045;-84
2023/12/31 07:18:55;;;;;;;0.10;0.10;;;6.70;1.00;;;;;;5070111;28;20044;-86
2023/12/31 07:21:22;;;;;;;0.10;0.10;;;6.70;1.00;;;;;;5069324;28;20056;-85
2023/12/31 07:23:48;;;;;;;0.50;0.50;;;6.70;1.00;;;;;;5067090;28;20037;-85
2023/12/31 07:26:27;;;;;;;0.52;0.52;;;6.60;1.00;;;;;;5068486;28;20029;-86
2023/12/31 07:28:54;;;;;;;0.30;0.28;;;6.60;1.00;;;;;;5068241;28;20025;-86
2023/12/31 07:31:21;;;;;;;0.43;0.40;;;6.60;1.00;;;;;;5072364;28;20040;-85
2023/12/31 07:33:48;;;;;;;0.47;0.45;;;6.50;1.00;;;;;;5076938;28;20036;-86
2023/12/31 07:36:14;;;;;;;0.98;0.75;;;6.60;1.00;;;;;;5074029;28;20067;-89
2023/12/31 07:38:43;;;;;;;0.90;0.57;;;6.50;1.00;;;;;;5075927;28;20035;-88
2023/12/31 07:41:13;;;;;;;0.30;0.30;;;6.60;1.00;;;;;;5073819;28;20039;-90
2023/12/31 07:43:40;;;;;;;0.40;0.40;;;6.50;1.00;;;;;;5079881;28;20031;-84
2023/12/31 07:46:08;;;;;;;0.20;0.20;;;6.60;1.00;;;;;;5088044;28;20036;-88
2023/12/31 07:48:34;;;;;;;0.25;0.25;;;6.60;1.00;;;;;;5075227;28;20339;-87
2023/12/31 07:51:03;;;;;;;0.20;0.20;;;6.70;1.00;;;;;;5072323;28;20397;-87
2023/12/31 07:53:32;;;;;;;0.38;0.38;;;6.70;1.00;;;;;;5071135;28;20051;-86
2023/12/31 07:55:59;;;;;;;0.55;0.52;;;6.70;1.00;;;;;;5075916;28;20063;-86
2023/12/31 07:58:27;;;;;;;0.50;0.50;;;6.80;1.00;;;;;;5068156;28;20033;-86
2023/12/31 08:00:55;;;;;;;2.75;2.55;;;6.90;1.00;;;;;;5064664;28;20044;-86
2023/12/31 08:03:21;;;;;;;1.98;1.77;;;6.90;1.00;;;;;;5068219;28;20033;-86
2023/12/31 08:05:47;;;;;;;1.65;1.50;;;7.00;1.00;;;;;;5068505;28;20029;-86
2023/12/31 08:08:14;;;;;;;4.40;2.13;;;7.00;1.00;;;;;;5064951;28;20040;-87
2023/12/31 08:10:44;;;;;;;8.07;4.40;;;7.10;1.00;;;;;;5066916;28;20044;-84
2023/12/31 08:13:11;;;;;;;1.85;1.67;;;7.10;1.00;;;;;;5067664;28;20028;-85
2023/12/31 08:15:37;;;;;;;2.28;2.03;;;7.10;1.00;;;;;;5067028;28;20508;-84
2023/12/31 08:18:04;;;;;;;3.25;2.72;;;7.20;1.00;;;;;;5066713;28;20044;-83
2023/12/31 08:20:30;;;;;;;1.85;1.70;;;7.20;1.00;;;;;;5066108;28;20044;-83
2023/12/31 08:22:58;;;;;;;1.90;0.50;;;7.20;1.00;;;;;;5068529;28;20045;-84
2023/12/31 08:25:24;;;;;;;5.28;2.67;;;7.20;1.00;;;;;;5068825;28;20054;-84
2023/12/31 08:27:50;;;;;;;6.47;3.40;;;7.20;1.00;;;;;;5066817;28;20043;-85
2023/12/31 08:30:17;;;;;;;3.00;2.65;;;7.20;1.00;;;;;;5068049;28;20057;-83
2023/12/31 08:32:43;;;;;;;7.55;4.28;;;7.30;1.00;;;;;;5052302;28;20044;-83
2023/12/31 08:35:10;;;;;;;0.98;0.98;;;7.30;1.00;;;;;;5070194;28;20029;-82
2023/12/31 08:37:36;;;;;;;0.35;0.35;;;7.30;1.00;;;;;;5069241;28;20047;-83
2023/12/31 08:40:03;;;;;;;0.28;0.28;;;7.30;1.00;;;;;;5065075;28;20040;-84
2023/12/31 08:42:29;;;;;;;0.20;0.20;;;7.30;1.00;;;;;;5064657;28;20433;-83
2023/12/31 08:44:55;;;;;;;0.32;0.32;;;7.30;1.00;;;;;;5066887;28;20044;-83
2023/12/31 08:47:22;;;;;;;0.10;0.10;;;7.30;1.00;;;;;;5069197;28;20032;-83
2023/12/31 08:49:48;;;;;;;0.30;0.28;;;7.30;1.00;;;;;;5068009;28;20029;-83
2023/12/31 08:52:15;;;;;;;0.63;0.63;;;7.40;1.00;;;;;;5067488;28;20036;-82
2023/12/31 08:54:41;;;;;;;0.77;0.77;;;7.40;1.00;;;;;;5064012;28;20040;-81
2023/12/31 08:57:07;;;;;;;1.05;0.95;;;7.40;1.00;;;;;;5070732;28;20032;-81
2023/12/31 08:59:34;;;;;;;0.40;0.40;;;7.40;1.00;;;;;;5068102;28;20033;-81
2023/12/31 09:02:00;;;;;;;1.13;0.90;;;7.40;1.00;;;;;;5064202;28;20041;-82
2023/12/31 09:04:33;;;;;;;0.10;0.10;;;7.40;1.00;;;;;;5062039;28;20032;-81
2023/12/31 09:07:02;;;;;;;0.73;0.73;;;7.40;1.00;;;;;;5069884;28;20047;-83
2023/12/31 09:09:28;;;;;;;0.70;0.63;;;7.40;1.00;;;;;;5066072;28;20030;-82
2023/12/31 09:11:54;;;;;;;0.28;0.28;;;7.40;1.00;;;;;;5066550;28;20039;-83
2023/12/31 09:14:20;;;;;;;1.08;0.73;;;7.50;1.00;;;;;;5062689;28;20058;-82
2023/12/31 09:16:47;;;;;;;0.50;0.50;;;7.50;99.90;;;;;;5070810;28;20047;-83
2023/12/31 09:19:13;;;;;;;0.10;0.10;;;7.50;99.90;;;;;;5072371;28;20039;-84
2023/12/31 09:21:39;;;;;;;0.25;0.20;;;7.60;99.90;;;;;;5064086;28;20103;-84
2023/12/31 09:24:05;;;;;;;0.10;0.10;;;7.60;99.90;;;;;;5064876;28;20036;-84
2023/12/31 09:26:32;;;;;;;0.30;0.30;;;7.60;99.90;;;;;;5062983;28;20413;-82
2023/12/31 09:28:58;;;;;;;0.52;0.43;;;7.60;1.00;;;;;;5071514;28;20041;-83
2023/12/31 09:31:25;;;;;;;0.32;0.32;;;7.60;99.90;;;;;;5071651;28;20052;-88
2023/12/31 09:33:51;;;;;;;0.38;0.38;;;7.60;99.90;;;;;;5070012;28;20048;-85
2023/12/31 09:36:17;;;;;;;0.30;0.30;;;7.70;99.90;;;;;;5072931;28;20028;-85
2023/12/31 09:38:43;;;;;;;0.68;0.68;;;7.70;99.90;;;;;;5071955;28;20523;-85
2023/12/31 09:41:16;;;;;;;0.55;0.52;;;7.80;99.90;;;;;;5071187;28;20045;-85
2023/12/31 09:43:44;;;;;;;1.27;0.70;;;7.80;99.90;;;;;;5069388;28;20051;-84
2023/12/31 09:46:12;;;;;;;1.88;0.63;;;7.90;99.90;;;;;;5071225;28;20037;-84
2023/12/31 09:48:38;;;;;;;0.80;0.73;;;7.90;99.90;;;;;;5071862;28;20033;-83
2023/12/31 09:51:05;;;;;;;0.52;0.52;;;8.00;99.90;;;;;;5071911;28;20056;-83
2023/12/31 09:53:32;;;;;;;0.30;0.20;;;8.00;99.90;;;;;;5070607;28;20024;-83
2023/12/31 09:55:58;;;;;;;0.43;0.30;;;8.10;99.90;;;;;;5072392;28;20041;-83
2023/12/31 09:58:25;;;;;;;0.10;0.10;;;8.20;99.90;;;;;;5072573;28;20032;-84
2023/12/31 10:00:52;;;;;;;0.47;0.47;;;8.30;99.90;;;;;;5069598;28;20037;-84
2023/12/31 10:03:20;;;;;;;0.40;0.40;;;8.30;99.90;;;;;;5068338;28;20051;-83
2023/12/31 10:05:49;;;;;;;0.50;0.50;;;8.40;99.90;;;;;;5054213;28;20037;-78
2023/12/31 10:08:16;;;;;;;0.80;0.80;;;8.40;99.90;;;;;;5071859;28;20055;-78
2023/12/31 10:10:42;;;;;;;0.40;0.40;;;8.50;99.90;;;;;;5068771;28;20389;-79
2023/12/31 10:13:18;;;;;;;2.80;1.42;;;8.50;99.90;;;;;;5071892;28;20052;-79
2023/12/31 10:15:45;;;;;;;2.08;1.33;;;8.50;99.90;;;;;;5070085;28;20033;-79
2023/12/31 10:18:11;;;;;;;1.08;0.55;;;8.40;99.90;;;;;;5077447;28;20020;-78
2023/12/31 10:20:38;;;;;;;0.47;0.47;;;8.40;99.90;;;;;;5082840;28;20017;-81
2023/12/31 10:23:05;;;;;;;0.75;0.63;;;8.40;99.90;;;;;;5078720;28;20060;-80
2023/12/31 10:25:31;;;;;;;0.88;0.82;;;8.40;99.90;;;;;;5071123;28;20362;-86
2023/12/31 10:27:57;;;;;;;1.00;0.98;;;8.30;99.90;;;;;;5070054;28;20417;-81
2023/12/31 10:30:23;;;;;;;1.95;0.88;;;8.40;99.90;;;;;;5069735;28;20025;-82
2023/12/31 10:32:50;;;;;;;1.00;0.65;;;8.40;99.90;;;;;;5067733;28;20047;-82
2023/12/31 10:35:20;;;;;;;0.25;0.25;;;8.30;99.90;;;;;;5071298;28;20390;-80
2023/12/31 10:37:47;;;;;;;0.77;0.77;;;8.40;99.90;;;;;;5069411;28;20377;-80
2023/12/31 10:40:21;;;;;;;0.77;0.68;;;8.40;99.90;;;;;;5070760;28;20032;-82
2023/12/31 10:42:49;;;;;;;0.55;0.52;;;8.40;99.90;;;;;;5063074;28;20040;-81
2023/12/31 10:45:19;;;;;;;0.93;0.93;;;8.50;99.90;;;;;;5071031;28;20032;-82
2023/12/31 10:47:56;;;;;;;0.65;0.52;;;8.50;99.90;;;;;;5066569;28;20032;-79
2023/12/31 10:50:26;;;;;;;1.75;0.73;;;8.50;1.00;;;;;;5068409;28;20036;-80
2023/12/31 10:52:55;;;;;;;0.73;0.73;;;8.50;99.90;;;;;;5069855;28;20028;-78
2023/12/31 10:55:21;;;;;;;0.20;0.20;;;8.60;1.00;;;;;;5071184;28;20032;-79
2023/12/31 10:57:49;;;;;;;0.35;0.35;;;8.60;1.00;;;;;;5070215;28;20036;-80
2023/12/31 11:00:19;;;;;;;1.10;0.68;;;8.50;1.00;;;;;;5070326;28;20385;-81
2023/12/31 11:02:46;;;;;;;0.40;0.40;;;8.40;1.00;;;;;;5070353;28;20045;-82
2023/12/31 11:05:17;;;;;;;0.73;0.73;;;8.30;35.30;;;;;;5070627;28;20033;-82
2023/12/31 11:07:45;;;;;;;1.10;1.00;;;8.20;81.40;;;;;;5070704;28;20040;-81
2023/12/31 11:10:13;;;;;;;0.50;0.45;;;8.20;99.90;;;;;;5068734;28;20043;-80
2023/12/31 11:12:39;;;;;;;0.30;0.30;;;8.10;99.90;;;;;;5065476;28;20044;-81
2023/12/31 11:15:12;;;;;;;0.28;0.28;;;8.20;99.90;;;;;;5061120;28;20033;-81
2023/12/31 11:18:23;;;;;;;0.32;0.32;;;8.20;99.90;;;;;;5070047;28;20033;-80
2023/12/31 11:21:41;;;;;;;0.63;0.63;;;8.20;99.90;;;;;;5046302;28;20045;-80
2023/12/31 11:24:18;;;;;;;0.25;0.25;;;8.20;99.90;;;;;;5009739;28;20402;-81
2023/12/31 11:26:59;;;;;;;0.20;0.20;;;8.20;99.90;;;;;;5071257;28;20374;-81
2023/12/31 11:29:27;;;;;;;0.10;0.10;;;8.10;99.90;;;;;;5069214;28;20036;-81
2023/12/31 11:31:53;;;;;;;0.60;0.60;;;8.10;99.90;;;;;;5068480;28;20048;-81
2023/12/31 11:34:19;;;;;;;0.10;0.10;;;8.10;99.90;;;;;;5065673;28;20029;-80
2023/12/31 11:36:46;;;;;;;0.43;0.43;;;8.00;99.90;;;;;;5067718;28;20032;-80
2023/12/31 11:39:16;;;;;;;0.30;0.30;;;8.10;99.90;;;;;;5070279;28;20473;-81
2023/12/31 11:41:45;;;;;;;0.70;0.57;;;8.00;99.90;;;;;;5068661;28;20044;-81
2023/12/31 11:44:40;;;;;;;0.38;0.30;;;8.00;99.90;;;;;;5066926;28;20052;-83
2023/12/31 11:47:20;;;;;;;0.28;0.28;;;8.10;99.90;;;;;;5067192;28;20044;-81
2023/12/31 11:49:50;;;;;;;0.52;0.52;;;8.10;99.90;;;;;;5067307;28;20470;-80
2023/12/31 11:52:20;;;;;;;1.75;1.60;;;8.10;99.90;;;;;;5070276;28;20048;-81
2023/12/31 11:54:47;;;;;;;0.20;0.20;;;8.20;99.90;;;;;;5071045;28;20067;-82
2023/12/31 11:57:17;;;;;;;0.28;0.28;;;8.20;99.90;;;;;;5070160;28;20037;-81
2023/12/31 11:59:44;;;;;;;0.32;0.32;;;8.30;99.90;;;;;;5083889;28;20039;-81
2023/12/31 12:02:10;;;;;;;0.40;0.40;;;8.30;99.90;;;;;;5078412;28;20032;-81
2023/12/31 12:04:37;;;;;;;0.60;0.45;;;8.30;99.90;;;;;;5076780;28;20044;-83
2023/12/31 12:07:04;;;;;;;0.30;0.30;;;8.30;99.90;;;;;;5078761;28;20032;-83
2023/12/31 12:09:32;;;;;;;0.20;0.20;;;8.40;99.90;;;;;;5079499;28;20045;-83
2023/12/31 12:12:00;;;;;;;1.08;0.98;;;8.40;99.90;;;;;;5070204;28;20071;-80
2023/12/31 12:14:27;;;;;;;0.82;0.82;;;8.40;99.90;;;;;;5068963;28;20052;-80
2023/12/31 12:16:54;;;;;;;0.55;0.55;;;8.40;99.90;;;;;;5068216;28;20033;-80
2023/12/31 12:19:24;;;;;;;0.70;0.63;;;8.50;99.90;;;;;;5065085;28;20035;-81
2023/12/31 12:21:51;;;;;;;0.10;0.10;;;8.50;99.90;;;;;;5069035;28;20059;-80
2023/12/31 12:24:18;;;;;;;0.25;0.25;;;8.50;99.90;;;;;;5068096;28;20051;-80
2023/12/31 12:26:48;;;;;;;0.30;0.30;;;8.60;99.90;;;;;;5067572;28;20045;-80
2023/12/31 12:29:15;;;;;;;0.85;0.55;;;8.60;99.90;;;;;;5069166;28;20436;-81
2023/12/31 12:31:48;;;;;;;0.30;0.30;;;8.60;99.90;;;;;;5069765;28;20028;-81
2023/12/31 12:34:15;;;;;;;0.75;0.75;;;8.60;99.90;;;;;;5082887;28;20047;-80
2023/12/31 12:36:42;;;;;;;1.40;1.30;;;8.60;99.90;;;;;;5070594;28;20032;-80
2023/12/31 12:39:16;;;;;;;0.20;0.20;;;8.70;99.90;;;;;;5066525;28;20029;-79
2023/12/31 12:41:48;;;;;;;0.30;0.30;;;8.80;99.90;;;;;;5066711;28;20114;-79
2023/12/31 12:44:15;;;;;;;0.10;0.10;;;8.90;99.90;;;;;;5069917;28;20478;-78
2023/12/31 12:46:42;;;;;;;0.65;0.52;;;9.00;99.90;;;;;;5070628;28;20468;-79
2023/12/31 12:49:09;;;;;;;0.10;0.10;;;9.00;99.90;;;;;;5069905;28;20032;-79
2023/12/31 12:51:36;;;;;;;1.75;0.60;;;9.00;99.90;;;;;;5066814;28;20036;-80
2023/12/31 12:54:04;;;;;;;0.80;0.80;;;9.10;99.30;;;;;;5068304;28;20029;-79
2023/12/31 12:56:31;;;;;;;0.30;0.30;;;9.10;93.00;;;;;;5069498;28;20478;-79
2023/12/31 12:59:03;;;;;;;0.77;0.77;;;9.20;16.20;;;;;;5071821;28;20040;-79
2023/12/31 13:01:30;;;;;;;0.80;0.50;;;9.30;1.00;;;;;;5065499;28;20132;-80